Startpagina
METAR-TAF:

METAR-TAF

Vliegvelden :

Thoothukudi, India

breedte: 8-43-27N, lengte: 78-01-33E, hoogte: 39 m

Actueel weer

Dit bericht is 12 uur en het 5 minuten geleden gemaakt, om 09:00 UTC
Wind 12 kt uit het zuidwesten
Temperatuur 34°C
Vochtigheid 53%
Druk 1008 hPa
Zicht: 7000 m
Weinig wolken op 1600 ft
Verspreide wolken op 2000 ft
Weinig wolken op 3000 ft, Cumulonimbus.

METAR: VOTK 020900Z 23012KT 7000 FEW016 SCT020 FEW030CB 34/23 Q1008 NOSIG

Tijdstip: 02:35 (21:05 UTC)


TAF: ontbreekt

Waarnemingen en weersverwachtingen van meer dan 4000 vliegvelden (METAR en TAF).

De beschikbare stations zijn de gele en rode punten op de kaart.

Ga met uw muis naar het station om de naam te zien.

Klik dan om waarnemingen en weersverwachtingen te zien.

kaart wijzigen: klik op de groene knoppen met een zwart kruis om in te zoomen, op de groene knop met een streepje om uit te zoomen of op de groene pijlen voor aangrenzende kaarten.


METAR-TAF: